sensor_id;sensor_type;location;lat;lon;timestamp;P1;durP1;ratioP1;P2;durP2;ratioP2
7931;SDS011;4011;49.424;10.894;2023-07-13T00:01:03;4.32;;;2.10;;
7931;SDS011;4011;49.424;10.894;2023-07-13T00:06:24;3.65;;;2.20;;
7931;SDS011;4011;49.424;10.894;2023-07-13T00:11:53;3.40;;;2.10;;
7931;SDS011;4011;49.424;10.894;2023-07-13T00:17:16;3.90;;;1.92;;
7931;SDS011;4011;49.424;10.894;2023-07-13T00:22:38;4.55;;;2.30;;
7931;SDS011;4011;49.424;10.894;2023-07-13T00:27:59;3.58;;;2.10;;
7931;SDS011;4011;49.424;10.894;2023-07-13T00:33:22;3.95;;;2.10;;
7931;SDS011;4011;49.424;10.894;2023-07-13T00:38:43;5.00;;;2.33;;
7931;SDS011;4011;49.424;10.894;2023-07-13T00:44:05;4.05;;;2.17;;
7931;SDS011;4011;49.424;10.894;2023-07-13T00:49:29;4.30;;;2.10;;
7931;SDS011;4011;49.424;10.894;2023-07-13T00:54:51;6.05;;;2.20;;
7931;SDS011;4011;49.424;10.894;2023-07-13T01:00:13;3.40;;;2.00;;
7931;SDS011;4011;49.424;10.894;2023-07-13T01:05:35;4.22;;;2.22;;
7931;SDS011;4011;49.424;10.894;2023-07-13T01:10:57;3.30;;;2.10;;
7931;SDS011;4011;49.424;10.894;2023-07-13T01:16:21;3.70;;;1.80;;
7931;SDS011;4011;49.424;10.894;2023-07-13T01:21:49;5.20;;;2.22;;
7931;SDS011;4011;49.424;10.894;2023-07-13T01:27:11;3.97;;;2.33;;
7931;SDS011;4011;49.424;10.894;2023-07-13T01:32:32;2.88;;;1.70;;
7931;SDS011;4011;49.424;10.894;2023-07-13T01:37:55;3.35;;;1.88;;
7931;SDS011;4011;49.424;10.894;2023-07-13T01:43:17;4.03;;;2.17;;
7931;SDS011;4011;49.424;10.894;2023-07-13T01:48:38;4.03;;;2.20;;
7931;SDS011;4011;49.424;10.894;2023-07-13T01:54:01;3.63;;;2.13;;
7931;SDS011;4011;49.424;10.894;2023-07-13T01:59:22;4.15;;;2.10;;
7931;SDS011;4011;49.424;10.894;2023-07-13T02:04:44;3.42;;;2.20;;
7931;SDS011;4011;49.424;10.894;2023-07-13T02:10:07;3.30;;;1.92;;
7931;SDS011;4011;49.424;10.894;2023-07-13T02:15:29;3.58;;;2.00;;
7931;SDS011;4011;49.424;10.894;2023-07-13T02:20:50;7.20;;;2.55;;
7931;SDS011;4011;49.424;10.894;2023-07-13T02:26:13;3.90;;;2.10;;
7931;SDS011;4011;49.424;10.894;2023-07-13T02:31:34;3.90;;;2.13;;
7931;SDS011;4011;49.424;10.894;2023-07-13T02:36:56;4.10;;;2.30;;
7931;SDS011;4011;49.424;10.894;2023-07-13T02:42:20;4.30;;;2.15;;
7931;SDS011;4011;49.424;10.894;2023-07-13T02:47:41;3.80;;;1.80;;
7931;SDS011;4011;49.424;10.894;2023-07-13T02:53:03;3.47;;;1.95;;
7931;SDS011;4011;49.424;10.894;2023-07-13T02:58:25;3.80;;;1.90;;
7931;SDS011;4011;49.424;10.894;2023-07-13T03:03:47;3.47;;;2.15;;
7931;SDS011;4011;49.424;10.894;2023-07-13T03:09:08;4.00;;;2.13;;
7931;SDS011;4011;49.424;10.894;2023-07-13T03:14:31;3.47;;;1.95;;
7931;SDS011;4011;49.424;10.894;2023-07-13T03:19:52;3.47;;;1.92;;
7931;SDS011;4011;49.424;10.894;2023-07-13T03:25:14;3.67;;;2.05;;
7931;SDS011;4011;49.424;10.894;2023-07-13T03:30:37;3.80;;;2.10;;
7931;SDS011;4011;49.424;10.894;2023-07-13T03:35:59;3.47;;;1.90;;
7931;SDS011;4011;49.424;10.894;2023-07-13T03:41:20;4.72;;;1.90;;
7931;SDS011;4011;49.424;10.894;2023-07-13T03:46:43;3.97;;;2.10;;
7931;SDS011;4011;49.424;10.894;2023-07-13T03:52:06;3.95;;;2.13;;
7931;SDS011;4011;49.424;10.894;2023-07-13T03:57:27;3.50;;;1.88;;
7931;SDS011;4011;49.424;10.894;2023-07-13T04:02:50;3.50;;;1.90;;
7931;SDS011;4011;49.424;10.894;2023-07-13T04:08:12;5.28;;;2.13;;
7931;SDS011;4011;49.424;10.894;2023-07-13T04:13:33;3.70;;;1.98;;
7931;SDS011;4011;49.424;10.894;2023-07-13T04:18:56;4.03;;;1.95;;
7931;SDS011;4011;49.424;10.894;2023-07-13T04:24:19;3.80;;;2.20;;
7931;SDS011;4011;49.424;10.894;2023-07-13T04:29:41;4.43;;;2.05;;
7931;SDS011;4011;49.424;10.894;2023-07-13T04:35:04;4.10;;;2.00;;
7931;SDS011;4011;49.424;10.894;2023-07-13T04:40:26;4.65;;;2.15;;
7931;SDS011;4011;49.424;10.894;2023-07-13T04:45:47;4.00;;;1.90;;
7931;SDS011;4011;49.424;10.894;2023-07-13T04:51:10;4.20;;;2.20;;
7931;SDS011;4011;49.424;10.894;2023-07-13T04:56:32;3.83;;;2.10;;
7931;SDS011;4011;49.424;10.894;2023-07-13T05:01:53;3.55;;;2.00;;
7931;SDS011;4011;49.424;10.894;2023-07-13T05:07:16;2.85;;;1.60;;
7931;SDS011;4011;49.424;10.894;2023-07-13T05:12:37;3.65;;;1.80;;
7931;SDS011;4011;49.424;10.894;2023-07-13T05:17:59;4.20;;;1.95;;
7931;SDS011;4011;49.424;10.894;2023-07-13T05:23:21;4.78;;;2.22;;
7931;SDS011;4011;49.424;10.894;2023-07-13T05:28:44;3.83;;;2.00;;
7931;SDS011;4011;49.424;10.894;2023-07-13T05:34:05;4.20;;;2.00;;
7931;SDS011;4011;49.424;10.894;2023-07-13T05:39:28;4.47;;;2.08;;
7931;SDS011;4011;49.424;10.894;2023-07-13T05:44:49;6.03;;;1.92;;
7931;SDS011;4011;49.424;10.894;2023-07-13T05:50:11;3.75;;;1.92;;
7931;SDS011;4011;49.424;10.894;2023-07-13T05:55:34;4.18;;;2.20;;
7931;SDS011;4011;49.424;10.894;2023-07-13T06:00:59;3.53;;;1.85;;
7931;SDS011;4011;49.424;10.894;2023-07-13T06:06:21;5.40;;;2.03;;
7931;SDS011;4011;49.424;10.894;2023-07-13T06:11:44;3.65;;;2.20;;
7931;SDS011;4011;49.424;10.894;2023-07-13T06:17:06;3.70;;;2.00;;
7931;SDS011;4011;49.424;10.894;2023-07-13T06:22:28;3.88;;;2.00;;
7931;SDS011;4011;49.424;10.894;2023-07-13T06:27:51;3.75;;;1.80;;
7931;SDS011;4011;49.424;10.894;2023-07-13T06:33:12;3.78;;;1.80;;
7931;SDS011;4011;49.424;10.894;2023-07-13T06:38:34;3.15;;;1.75;;
7931;SDS011;4011;49.424;10.894;2023-07-13T06:43:57;4.00;;;1.80;;
7931;SDS011;4011;49.424;10.894;2023-07-13T06:49:18;5.70;;;2.00;;
7931;SDS011;4011;49.424;10.894;2023-07-13T06:54:39;3.80;;;1.80;;
7931;SDS011;4011;49.424;10.894;2023-07-13T07:00:02;4.60;;;2.15;;
7931;SDS011;4011;49.424;10.894;2023-07-13T07:10:47;3.00;;;1.80;;
7931;SDS011;4011;49.424;10.894;2023-07-13T07:16:15;3.83;;;1.85;;
7931;SDS011;4011;49.424;10.894;2023-07-13T07:21:37;4.45;;;2.00;;
7931;SDS011;4011;49.424;10.894;2023-07-13T07:26:58;3.33;;;1.85;;
7931;SDS011;4011;49.424;10.894;2023-07-13T07:32:21;3.45;;;2.00;;
7931;SDS011;4011;49.424;10.894;2023-07-13T07:37:42;3.15;;;1.80;;
7931;SDS011;4011;49.424;10.894;2023-07-13T07:43:03;3.58;;;1.80;;
7931;SDS011;4011;49.424;10.894;2023-07-13T07:48:26;3.83;;;2.13;;
7931;SDS011;4011;49.424;10.894;2023-07-13T07:53:47;2.88;;;1.65;;
7931;SDS011;4011;49.424;10.894;2023-07-13T07:59:09;3.10;;;1.70;;
7931;SDS011;4011;49.424;10.894;2023-07-13T08:04:32;3.75;;;1.80;;
7931;SDS011;4011;49.424;10.894;2023-07-13T08:09:53;3.47;;;1.67;;
7931;SDS011;4011;49.424;10.894;2023-07-13T08:15:15;3.80;;;1.80;;
7931;SDS011;4011;49.424;10.894;2023-07-13T08:20:39;3.15;;;1.80;;
7931;SDS011;4011;49.424;10.894;2023-07-13T08:26:00;3.03;;;1.55;;
7931;SDS011;4011;49.424;10.894;2023-07-13T08:31:22;2.50;;;1.63;;
7931;SDS011;4011;49.424;10.894;2023-07-13T08:36:45;4.22;;;1.80;;
7931;SDS011;4011;49.424;10.894;2023-07-13T08:42:07;2.97;;;1.75;;
7931;SDS011;4011;49.424;10.894;2023-07-13T08:47:32;3.13;;;1.67;;
7931;SDS011;4011;49.424;10.894;2023-07-13T08:52:56;4.50;;;1.80;;
7931;SDS011;4011;49.424;10.894;2023-07-13T08:58:18;3.40;;;1.85;;
7931;SDS011;4011;49.424;10.894;2023-07-13T09:03:40;3.60;;;1.70;;
7931;SDS011;4011;49.424;10.894;2023-07-13T09:09:06;4.20;;;2.00;;
7931;SDS011;4011;49.424;10.894;2023-07-13T09:14:35;3.78;;;1.77;;
7931;SDS011;4011;49.424;10.894;2023-07-13T09:19:59;3.00;;;1.85;;
7931;SDS011;4011;49.424;10.894;2023-07-13T09:25:26;4.00;;;1.73;;
7931;SDS011;4011;49.424;10.894;2023-07-13T09:30:50;3.40;;;1.50;;
7931;SDS011;4011;49.424;10.894;2023-07-13T09:36:17;4.35;;;1.90;;
7931;SDS011;4011;49.424;10.894;2023-07-13T09:41:41;2.72;;;1.60;;
7931;SDS011;4011;49.424;10.894;2023-07-13T09:47:15;2.97;;;1.60;;
7931;SDS011;4011;49.424;10.894;2023-07-13T09:52:40;5.43;;;1.70;;
7931;SDS011;4011;49.424;10.894;2023-07-13T09:58:06;3.35;;;1.60;;
7931;SDS011;4011;49.424;10.894;2023-07-13T10:03:31;3.75;;;1.60;;
7931;SDS011;4011;49.424;10.894;2023-07-13T10:08:57;4.55;;;1.80;;
7931;SDS011;4011;49.424;10.894;2023-07-13T10:14:21;3.30;;;1.60;;
7931;SDS011;4011;49.424;10.894;2023-07-13T10:19:45;4.18;;;1.70;;
7931;SDS011;4011;49.424;10.894;2023-07-13T10:25:13;4.43;;;1.80;;
7931;SDS011;4011;49.424;10.894;2023-07-13T10:30:38;4.25;;;1.90;;
7931;SDS011;4011;49.424;10.894;2023-07-13T10:36:11;5.13;;;1.92;;
7931;SDS011;4011;49.424;10.894;2023-07-13T10:41:40;3.55;;;1.80;;
7931;SDS011;4011;49.424;10.894;2023-07-13T10:47:04;3.88;;;2.00;;
7931;SDS011;4011;49.424;10.894;2023-07-13T10:52:41;3.05;;;1.63;;
7931;SDS011;4011;49.424;10.894;2023-07-13T11:03:33;3.45;;;1.70;;
7931;SDS011;4011;49.424;10.894;2023-07-13T11:08:56;7.18;;;2.08;;
7931;SDS011;4011;49.424;10.894;2023-07-13T11:14:28;4.15;;;1.73;;
7931;SDS011;4011;49.424;10.894;2023-07-13T11:19:52;3.15;;;1.98;;
7931;SDS011;4011;49.424;10.894;2023-07-13T11:25:27;3.50;;;1.70;;
7931;SDS011;4011;49.424;10.894;2023-07-13T11:30:49;4.18;;;1.83;;
7931;SDS011;4011;49.424;10.894;2023-07-13T11:36:23;2.60;;;1.60;;
7931;SDS011;4011;49.424;10.894;2023-07-13T11:41:45;4.03;;;2.03;;
7931;SDS011;4011;49.424;10.894;2023-07-13T11:47:10;3.03;;;1.80;;
7931;SDS011;4011;49.424;10.894;2023-07-13T11:52:36;5.28;;;1.70;;
7931;SDS011;4011;49.424;10.894;2023-07-13T11:57:59;2.95;;;1.63;;
7931;SDS011;4011;49.424;10.894;2023-07-13T12:03:23;4.28;;;1.90;;
7931;SDS011;4011;49.424;10.894;2023-07-13T12:08:47;3.40;;;1.85;;
7931;SDS011;4011;49.424;10.894;2023-07-13T12:14:13;4.28;;;1.80;;
7931;SDS011;4011;49.424;10.894;2023-07-13T12:19:35;2.80;;;1.77;;
7931;SDS011;4011;49.424;10.894;2023-07-13T12:24:58;3.50;;;1.75;;
7931;SDS011;4011;49.424;10.894;2023-07-13T12:30:24;6.55;;;2.10;;
7931;SDS011;4011;49.424;10.894;2023-07-13T12:35:47;3.83;;;1.90;;
7931;SDS011;4011;49.424;10.894;2023-07-13T12:41:10;4.57;;;1.75;;
7931;SDS011;4011;49.424;10.894;2023-07-13T12:46:31;3.67;;;1.90;;
7931;SDS011;4011;49.424;10.894;2023-07-13T12:51:55;3.65;;;1.80;;
7931;SDS011;4011;49.424;10.894;2023-07-13T12:57:19;5.80;;;2.10;;
7931;SDS011;4011;49.424;10.894;2023-07-13T13:02:40;4.45;;;1.90;;
7931;SDS011;4011;49.424;10.894;2023-07-13T13:08:01;3.67;;;1.98;;
7931;SDS011;4011;49.424;10.894;2023-07-13T13:13:24;4.10;;;1.90;;
7931;SDS011;4011;49.424;10.894;2023-07-13T13:18:45;3.45;;;1.73;;
7931;SDS011;4011;49.424;10.894;2023-07-13T13:24:10;3.30;;;2.00;;
7931;SDS011;4011;49.424;10.894;2023-07-13T13:29:39;3.17;;;1.90;;
7931;SDS011;4011;49.424;10.894;2023-07-13T13:35:01;3.70;;;1.90;;
7931;SDS011;4011;49.424;10.894;2023-07-13T13:40:22;4.07;;;2.00;;
7931;SDS011;4011;49.424;10.894;2023-07-13T13:45:45;4.25;;;2.00;;
7931;SDS011;4011;49.424;10.894;2023-07-13T13:51:11;3.30;;;1.80;;
7931;SDS011;4011;49.424;10.894;2023-07-13T13:56:34;4.18;;;2.10;;
7931;SDS011;4011;49.424;10.894;2023-07-13T14:01:57;3.63;;;1.92;;
7931;SDS011;4011;49.424;10.894;2023-07-13T14:07:20;4.53;;;1.92;;
7931;SDS011;4011;49.424;10.894;2023-07-13T14:12:41;3.70;;;2.00;;
7931;SDS011;4011;49.424;10.894;2023-07-13T14:18:07;3.40;;;1.80;;
7931;SDS011;4011;49.424;10.894;2023-07-13T14:23:29;4.15;;;2.10;;
7931;SDS011;4011;49.424;10.894;2023-07-13T14:28:51;3.17;;;1.90;;
7931;SDS011;4011;49.424;10.894;2023-07-13T14:34:14;4.15;;;1.85;;
7931;SDS011;4011;49.424;10.894;2023-07-13T14:39:35;2.90;;;1.75;;
7931;SDS011;4011;49.424;10.894;2023-07-13T14:44:57;4.43;;;1.88;;
7931;SDS011;4011;49.424;10.894;2023-07-13T14:50:20;5.03;;;1.90;;
7931;SDS011;4011;49.424;10.894;2023-07-13T14:55:42;3.17;;;1.88;;
7931;SDS011;4011;49.424;10.894;2023-07-13T15:01:03;3.92;;;2.00;;
7931;SDS011;4011;49.424;10.894;2023-07-13T15:06:26;4.85;;;1.90;;
7931;SDS011;4011;49.424;10.894;2023-07-13T15:11:49;4.90;;;2.10;;
7931;SDS011;4011;49.424;10.894;2023-07-13T15:17:17;6.60;;;2.15;;
7931;SDS011;4011;49.424;10.894;2023-07-13T15:22:41;4.85;;;1.98;;
7931;SDS011;4011;49.424;10.894;2023-07-13T15:28:02;5.03;;;2.08;;
7931;SDS011;4011;49.424;10.894;2023-07-13T15:33:25;4.25;;;2.13;;
7931;SDS011;4011;49.424;10.894;2023-07-13T15:38:48;4.57;;;2.10;;
7931;SDS011;4011;49.424;10.894;2023-07-13T15:44:20;5.00;;;2.30;;
7931;SDS011;4011;49.424;10.894;2023-07-13T15:49:42;17.40;;;5.63;;
7931;SDS011;4011;49.424;10.894;2023-07-13T15:55:05;12.98;;;4.65;;
7931;SDS011;4011;49.424;10.894;2023-07-13T16:00:27;13.75;;;4.95;;
7931;SDS011;4011;49.424;10.894;2023-07-13T16:05:48;10.00;;;3.40;;
7931;SDS011;4011;49.424;10.894;2023-07-13T16:11:19;7.20;;;3.30;;
7931;SDS011;4011;49.424;10.894;2023-07-13T16:16:42;5.53;;;2.58;;
7931;SDS011;4011;49.424;10.894;2023-07-13T16:22:04;4.25;;;2.10;;
7931;SDS011;4011;49.424;10.894;2023-07-13T16:27:28;3.55;;;2.00;;
7931;SDS011;4011;49.424;10.894;2023-07-13T16:32:50;5.38;;;2.20;;
7931;SDS011;4011;49.424;10.894;2023-07-13T16:38:13;3.00;;;1.80;;
7931;SDS011;4011;49.424;10.894;2023-07-13T16:43:36;5.47;;;2.10;;
7931;SDS011;4011;49.424;10.894;2023-07-13T16:48:59;5.85;;;2.30;;
7931;SDS011;4011;49.424;10.894;2023-07-13T16:54:21;3.72;;;2.10;;
7931;SDS011;4011;49.424;10.894;2023-07-13T16:59:44;5.05;;;2.03;;
7931;SDS011;4011;49.424;10.894;2023-07-13T17:05:08;4.20;;;1.90;;
7931;SDS011;4011;49.424;10.894;2023-07-13T17:10:30;5.07;;;1.95;;
7931;SDS011;4011;49.424;10.894;2023-07-13T17:15:54;4.20;;;2.10;;
7931;SDS011;4011;49.424;10.894;2023-07-13T17:26:38;4.07;;;2.00;;
7931;SDS011;4011;49.424;10.894;2023-07-13T17:32:01;3.53;;;1.90;;
7931;SDS011;4011;49.424;10.894;2023-07-13T17:37:23;3.58;;;1.90;;
7931;SDS011;4011;49.424;10.894;2023-07-13T17:42:44;3.40;;;2.08;;
7931;SDS011;4011;49.424;10.894;2023-07-13T17:48:08;3.75;;;1.80;;
7931;SDS011;4011;49.424;10.894;2023-07-13T17:53:31;4.57;;;2.00;;
7931;SDS011;4011;49.424;10.894;2023-07-13T17:58:54;4.00;;;2.00;;
7931;SDS011;4011;49.424;10.894;2023-07-13T18:04:17;4.57;;;2.28;;
7931;SDS011;4011;49.424;10.894;2023-07-13T18:09:42;4.13;;;1.85;;
7931;SDS011;4011;49.424;10.894;2023-07-13T18:15:07;3.17;;;2.10;;
7931;SDS011;4011;49.424;10.894;2023-07-13T18:20:30;3.35;;;1.90;;
7931;SDS011;4011;49.424;10.894;2023-07-13T18:25:53;4.30;;;2.20;;
7931;SDS011;4011;49.424;10.894;2023-07-13T18:31:15;5.65;;;1.98;;
7931;SDS011;4011;49.424;10.894;2023-07-13T18:36:39;3.92;;;2.10;;
7931;SDS011;4011;49.424;10.894;2023-07-13T18:42:01;4.25;;;2.10;;
7931;SDS011;4011;49.424;10.894;2023-07-13T18:47:25;4.65;;;1.95;;
7931;SDS011;4011;49.424;10.894;2023-07-13T18:52:54;3.92;;;1.80;;
7931;SDS011;4011;49.424;10.894;2023-07-13T18:58:15;4.88;;;1.90;;
7931;SDS011;4011;49.424;10.894;2023-07-13T19:03:40;4.05;;;1.85;;
7931;SDS011;4011;49.424;10.894;2023-07-13T19:09:04;3.92;;;2.17;;
7931;SDS011;4011;49.424;10.894;2023-07-13T19:14:28;3.63;;;1.90;;
7931;SDS011;4011;49.424;10.894;2023-07-13T19:19:51;4.68;;;2.30;;
7931;SDS011;4011;49.424;10.894;2023-07-13T19:25:14;4.25;;;2.10;;
7931;SDS011;4011;49.424;10.894;2023-07-13T19:30:36;4.05;;;1.92;;
7931;SDS011;4011;49.424;10.894;2023-07-13T19:35:58;5.07;;;1.80;;
7931;SDS011;4011;49.424;10.894;2023-07-13T19:41:23;4.68;;;1.90;;
7931;SDS011;4011;49.424;10.894;2023-07-13T19:46:45;4.25;;;2.10;;
7931;SDS011;4011;49.424;10.894;2023-07-13T19:52:08;3.95;;;2.30;;
7931;SDS011;4011;49.424;10.894;2023-07-13T19:57:31;3.35;;;2.00;;
7931;SDS011;4011;49.424;10.894;2023-07-13T20:02:53;3.83;;;1.90;;
7931;SDS011;4011;49.424;10.894;2023-07-13T20:08:16;3.58;;;2.00;;
7931;SDS011;4011;49.424;10.894;2023-07-13T20:13:41;4.47;;;2.22;;
7931;SDS011;4011;49.424;10.894;2023-07-13T20:19:02;5.55;;;2.47;;
7931;SDS011;4011;49.424;10.894;2023-07-13T20:24:24;3.78;;;2.20;;
7931;SDS011;4011;49.424;10.894;2023-07-13T20:29:47;5.20;;;2.22;;
7931;SDS011;4011;49.424;10.894;2023-07-13T20:35:23;5.38;;;2.65;;
7931;SDS011;4011;49.424;10.894;2023-07-13T20:40:45;4.07;;;2.10;;
7931;SDS011;4011;49.424;10.894;2023-07-13T20:46:10;4.35;;;2.20;;
7931;SDS011;4011;49.424;10.894;2023-07-13T20:51:33;4.10;;;2.80;;
7931;SDS011;4011;49.424;10.894;2023-07-13T20:56:55;5.28;;;2.60;;
7931;SDS011;4011;49.424;10.894;2023-07-13T21:02:23;5.05;;;2.60;;
7931;SDS011;4011;49.424;10.894;2023-07-13T21:07:47;5.88;;;3.65;;
7931;SDS011;4011;49.424;10.894;2023-07-13T21:13:09;6.47;;;3.97;;
7931;SDS011;4011;49.424;10.894;2023-07-13T21:18:31;5.45;;;3.28;;
7931;SDS011;4011;49.424;10.894;2023-07-13T21:23:53;4.30;;;2.80;;
7931;SDS011;4011;49.424;10.894;2023-07-13T21:29:14;4.95;;;2.63;;
7931;SDS011;4011;49.424;10.894;2023-07-13T21:34:37;6.35;;;2.85;;
7931;SDS011;4011;49.424;10.894;2023-07-13T21:39:58;4.55;;;2.67;;
7931;SDS011;4011;49.424;10.894;2023-07-13T21:45:20;5.00;;;2.80;;
7931;SDS011;4011;49.424;10.894;2023-07-13T21:50:44;4.90;;;2.65;;
7931;SDS011;4011;49.424;10.894;2023-07-13T21:56:08;4.90;;;2.30;;
7931;SDS011;4011;49.424;10.894;2023-07-13T22:01:30;5.05;;;2.50;;
7931;SDS011;4011;49.424;10.894;2023-07-13T22:06:54;4.03;;;2.13;;
7931;SDS011;4011;49.424;10.894;2023-07-13T22:12:16;4.15;;;2.22;;
7931;SDS011;4011;49.424;10.894;2023-07-13T22:17:39;4.28;;;2.10;;
7931;SDS011;4011;49.424;10.894;2023-07-13T22:23:11;4.03;;;2.25;;
7931;SDS011;4011;49.424;10.894;2023-07-13T22:28:35;4.43;;;2.50;;
7931;SDS011;4011;49.424;10.894;2023-07-13T22:33:56;5.15;;;2.17;;
7931;SDS011;4011;49.424;10.894;2023-07-13T22:39:20;3.45;;;2.10;;
7931;SDS011;4011;49.424;10.894;2023-07-13T22:44:43;3.33;;;2.25;;
7931;SDS011;4011;49.424;10.894;2023-07-13T22:50:14;4.18;;;2.20;;
7931;SDS011;4011;49.424;10.894;2023-07-13T23:00:59;4.95;;;2.35;;
7931;SDS011;4011;49.424;10.894;2023-07-13T23:06:21;5.07;;;2.05;;
7931;SDS011;4011;49.424;10.894;2023-07-13T23:11:43;4.40;;;2.38;;
7931;SDS011;4011;49.424;10.894;2023-07-13T23:17:09;4.68;;;2.40;;
7931;SDS011;4011;49.424;10.894;2023-07-13T23:22:31;4.53;;;2.10;;
7931;SDS011;4011;49.424;10.894;2023-07-13T23:27:53;4.88;;;2.20;;
7931;SDS011;4011;49.424;10.894;2023-07-13T23:33:18;4.70;;;2.47;;
7931;SDS011;4011;49.424;10.894;2023-07-13T23:38:41;4.32;;;2.40;;
7931;SDS011;4011;49.424;10.894;2023-07-13T23:44:03;3.20;;;2.20;;
7931;SDS011;4011;49.424;10.894;2023-07-13T23:49:26;4.03;;;2.50;;
7931;SDS011;4011;49.424;10.894;2023-07-13T23:54:48;4.10;;;2.38;;
